Time;durP1;ratioP1;P1;durP2;ratioP2;P2;SDS_P1;SDS_P2;PMS_P1;PMS_P2;Temp;Humidity;BMP_temperature;BMP_pressure;BME280_temperature;BME280_humidity;BME280_pressure;Samples;Min_cycle;Max_cycle;Signal;HPM_P1;HPM_P2
2023/10/29 00:00:45;;;;;;;0.70;0.57;;;;;;;14.01;58.68;99048.47;4479414;32;34890;-65
2023/10/29 00:03:12;;;;;;;1.35;0.85;;;;;;;13.93;58.79;99068.03;4472055;31;35207;-65
2023/10/29 00:05:41;;;;;;;1.98;1.10;;;;;;;13.78;59.14;99073.13;4467450;32;33951;-65
2023/10/29 00:08:11;;;;;;;1.15;0.85;;;;;;;13.46;60.38;99073.59;4493972;31;33408;-65
2023/10/29 00:10:39;;;;;;;0.80;0.80;;;;;;;13.59;59.52;99079.47;4496782;31;33999;-64
2023/10/29 00:13:07;;;;;;;2.10;1.55;;;;;;;13.67;58.88;99082.22;4492936;31;33805;-65
2023/10/29 00:15:34;;;;;;;1.20;0.95;;;;;;;13.65;58.60;99076.16;4487989;31;34161;-69
2023/10/29 00:18:05;;;;;;;2.22;1.58;;;;;;;13.68;58.57;99077.72;4482086;32;34448;-70
2023/10/29 00:20:33;;;;;;;1.77;1.02;;;;;;;13.74;58.44;99077.13;4482925;32;33309;-69
2023/10/29 00:23:01;;;;;;;1.67;1.10;;;;;;;13.78;58.21;99074.97;4488825;31;34743;-70
2023/10/29 00:25:28;;;;;;;1.25;0.75;;;;;;;13.81;58.17;99058.53;4469765;31;33880;-69
2023/10/29 00:27:56;;;;;;;2.85;1.65;;;;;;;13.84;58.19;99056.37;4478379;31;33300;-69
2023/10/29 00:30:23;;;;;;;1.62;1.10;;;;;;;13.84;58.42;99056.37;4481505;31;35083;-70
2023/10/29 00:32:52;;;;;;;2.95;1.65;;;;;;;13.88;58.32;99062.28;4472691;32;33811;-70
2023/10/29 00:35:20;;;;;;;2.50;1.33;;;;;;;13.89;58.38;99058.59;4486324;31;33666;-70
2023/10/29 00:37:47;;;;;;;1.80;1.33;;;;;;;13.92;58.54;99064.50;4486051;31;34236;-68
2023/10/29 00:40:15;;;;;;;5.65;1.90;;;;;;;13.93;58.70;99062.66;4487242;31;33750;-66
2023/10/29 00:42:43;;;;;;;2.17;1.50;;;;;;;13.93;58.77;99059.97;4477489;31;34939;-67
2023/10/29 00:45:11;;;;;;;2.80;1.58;;;;;;;13.91;58.77;99060.16;4498413;31;33160;-67
2023/10/29 00:47:40;;;;;;;1.45;1.12;;;;;;;13.94;58.78;99056.31;4493676;31;34374;-66
2023/10/29 00:50:08;;;;;;;1.30;1.17;;;;;;;13.96;58.59;99059.66;4493915;31;33659;-67
2023/10/29 00:52:36;;;;;;;0.75;0.73;;;;;;;13.83;58.83;99060.03;4483885;31;34132;-67
2023/10/29 00:55:04;;;;;;;2.83;1.45;;;;;;;13.86;58.81;99059.75;4482545;32;33441;-67
2023/10/29 00:57:32;;;;;;;1.60;1.12;;;;;;;13.73;59.03;99053.88;4496376;31;34022;-67
2023/10/29 00:59:59;;;;;;;3.30;1.73;;;;;;;13.68;59.20;99048.97;4498169;31;34673;-66
2023/10/29 01:02:27;;;;;;;3.90;1.67;;;;;;;13.83;58.65;99043.91;4479611;31;32657;-67
2023/10/29 01:04:56;;;;;;;2.53;2.17;;;;;;;13.79;58.81;99034.47;4483352;32;34908;-66
2023/10/29 01:07:25;;;;;;;2.83;1.25;;;;;;;13.79;58.82;99030.94;4483229;31;34248;-67
2023/10/29 01:09:52;;;;;;;4.35;1.83;;;;;;;13.78;58.78;99040.00;4491824;31;34699;-67
2023/10/29 01:12:20;;;;;;;0.95;0.88;;;;;;;13.83;58.46;99041.22;4483170;31;35356;-66
2023/10/29 01:14:48;;;;;;;2.42;1.60;;;;;;;13.89;58.34;99035.22;4486354;31;34341;-66
2023/10/29 01:17:16;;;;;;;2.28;1.48;;;;;;;13.62;59.28;99040.69;4484676;32;34447;-66
2023/10/29 01:19:43;;;;;;;1.80;1.23;;;;;;;13.86;58.67;99045.44;4481573;31;33516;-66
2023/10/29 01:22:11;;;;;;;1.33;0.98;;;;;;;13.89;57.93;99048.69;4477681;31;34019;-67
2023/10/29 01:24:39;;;;;;;1.48;1.20;;;;;;;13.88;57.94;99044.31;4499322;31;33563;-66
2023/10/29 01:27:07;;;;;;;4.75;1.40;;;;;;;13.81;57.89;99042.41;4484988;31;34424;-67
2023/10/29 01:29:36;;;;;;;1.42;1.05;;;;;;;13.78;57.68;99045.38;4493972;31;34457;-67
2023/10/29 01:32:04;;;;;;;2.15;1.80;;;;;;;13.69;57.77;99050.66;4492271;31;34139;-67
2023/10/29 01:34:31;;;;;;;2.05;1.42;;;;;;;13.66;58.11;99048.28;4474963;32;33446;-67
2023/10/29 01:36:59;;;;;;;3.50;1.55;;;;;;;13.50;58.53;99054.31;4488073;31;34119;-67
2023/10/29 01:39:27;;;;;;;1.73;1.20;;;;;;;13.61;58.09;99058.66;4488016;31;33759;-67
2023/10/29 01:41:56;;;;;;;4.18;1.62;;;;;;;13.61;58.02;99064.03;4494223;31;35537;-67
2023/10/29 01:44:23;;;;;;;3.55;2.10;;;;;;;13.62;57.91;99059.50;4495439;31;35112;-67
2023/10/29 01:46:51;;;;;;;3.50;1.60;;;;;;;13.61;58.08;99052.41;4498113;31;33382;-67
2023/10/29 01:49:19;;;;;;;2.72;1.80;;;;;;;13.63;58.09;99070.09;4479375;31;34834;-67
2023/10/29 01:51:46;;;;;;;4.07;2.30;;;;;;;13.64;58.14;99069.09;4475086;31;33757;-67
2023/10/29 01:54:14;;;;;;;4.50;1.65;;;;;;;13.66;57.70;99066.25;4482920;31;33762;-67
2023/10/29 01:56:42;;;;;;;5.70;2.08;;;;;;;13.66;57.73;99060.88;4481713;31;32851;-67
2023/10/29 01:59:13;;;;;;;3.62;1.87;;;;;;;13.67;57.62;99060.72;4490821;31;33705;-67
2023/10/29 02:01:41;;;;;;;3.50;2.22;;;;;;;13.58;58.28;99068.84;4483547;31;33391;-67
2023/10/29 02:04:12;;;;;;;7.97;4.03;;;;;;;13.66;58.34;99074.31;4483687;31;34544;-67
2023/10/29 02:06:40;;;;;;;5.72;2.70;;;;;;;13.71;58.33;99070.19;4473787;32;33858;-67
2023/10/29 02:09:12;;;;;;;5.37;2.80;;;;;;;13.71;58.83;99072.88;4494318;31;33910;-67
2023/10/29 02:11:40;;;;;;;6.90;2.83;;;;;;;13.62;59.83;99075.62;4490382;31;34283;-67
2023/10/29 02:14:09;;;;;;;6.35;2.75;;;;;;;13.62;60.44;99081.84;4488209;31;33771;-67
2023/10/29 02:16:37;;;;;;;4.45;2.15;;;;;;;13.73;60.69;99092.38;4500202;31;33185;-67
2023/10/29 02:19:05;;;;;;;5.62;2.92;;;;;;;13.67;61.04;99084.91;4475761;31;33599;-67
2023/10/29 02:21:34;;;;;;;3.65;1.67;;;;;;;13.77;60.38;99075.94;4494575;31;34277;-67
2023/10/29 02:24:02;;;;;;;4.87;3.12;;;;;;;13.69;60.75;99080.25;4483479;31;33856;-67
2023/10/29 02:26:30;;;;;;;2.78;2.03;;;;;;;13.74;60.60;99069.06;4482535;31;32969;-67
2023/10/29 02:28:59;;;;;;;5.10;2.83;;;;;;;13.73;60.55;99078.94;4495545;31;34119;-66
2023/10/29 02:31:27;;;;;;;4.75;2.53;;;;;;;13.77;60.16;99092.94;4497168;31;34137;-67
2023/10/29 02:33:54;;;;;;;1.70;1.30;;;;;;;13.82;60.05;99084.41;4490310;31;34674;-67
2023/10/29 02:36:22;;;;;;;3.35;2.17;;;;;;;13.84;60.29;99095.88;4491751;31;33568;-67
2023/10/29 02:38:50;;;;;;;7.78;3.10;;;;;;;13.88;60.32;99091.88;4482170;31;34621;-67
2023/10/29 02:41:17;;;;;;;2.62;1.73;;;;;;;13.89;60.48;99096.25;4481082;31;35443;-67
2023/10/29 02:43:45;;;;;;;5.62;2.87;;;;;;;13.87;60.67;99084.81;4491315;31;34848;-67
2023/10/29 02:46:13;;;;;;;2.83;1.95;;;;;;;13.84;60.74;99085.97;4498532;31;34088;-67
2023/10/29 02:48:40;;;;;;;8.75;2.58;;;;;;;13.89;60.60;99082.81;4499892;31;34689;-67
2023/10/29 02:51:12;;;;;;;6.85;2.47;;;;;;;13.91;60.46;99088.91;4483225;31;33954;-67
2023/10/29 02:53:39;;;;;;;4.47;2.03;;;;;;;13.86;60.72;99086.63;4482582;31;33493;-67
2023/10/29 02:56:07;;;;;;;3.42;2.45;;;;;;;13.85;60.59;99082.28;4486166;31;33638;-67
2023/10/29 02:58:35;;;;;;;4.30;3.28;;;;;;;13.87;60.55;99082.97;4481737;31;33798;-66
2023/10/29 03:01:04;;;;;;;8.45;2.50;;;;;;;13.92;60.30;99077.97;4487104;31;33606;-66
2023/10/29 03:03:31;;;;;;;7.35;4.10;;;;;;;13.81;60.86;99074.66;4494813;31;34368;-67
2023/10/29 03:06:06;;;;;;;3.87;2.45;;;;;;;13.90;60.38;99081.81;4498959;31;33174;-67
2023/10/29 03:08:35;;;;;;;5.25;3.10;;;;;;;13.95;59.96;99080.34;4491797;31;33763;-66
2023/10/29 03:11:03;;;;;;;5.22;2.45;;;;;;;13.95;60.16;99084.91;4481119;31;33884;-66
2023/10/29 03:13:31;;;;;;;3.92;3.53;;;;;;;13.98;60.00;99089.97;4490171;31;33935;-67
2023/10/29 03:15:59;;;;;;;5.10;2.47;;;;;;;13.99;60.01;99086.28;4498204;31;32444;-67
2023/10/29 03:18:29;;;;;;;5.70;2.95;;;;;;;13.99;60.24;99087.13;4484671;31;33733;-67
2023/10/29 03:20:57;;;;;;;5.22;3.10;;;;;;;13.89;60.50;99088.19;4497009;31;34896;-67
2023/10/29 03:23:24;;;;;;;4.32;3.05;;;;;;;13.83;60.45;99095.00;4487833;31;34844;-67
2023/10/29 03:25:53;;;;;;;6.93;3.35;;;;;;;13.92;60.29;99088.72;4488681;31;33535;-68
2023/10/29 03:28:21;;;;;;;3.75;2.72;;;;;;;13.98;60.12;99090.81;4493719;31;34663;-67
2023/10/29 03:30:49;;;;;;;3.47;2.22;;;;;;;14.03;60.08;99095.75;4493814;31;34033;-67
2023/10/29 03:33:16;;;;;;;3.83;1.95;;;;;;;14.00;60.23;99101.44;4482173;31;35043;-67
2023/10/29 03:35:44;;;;;;;5.95;3.15;;;;;;;14.06;60.00;99103.53;4484238;31;34453;-67
2023/10/29 03:38:12;;;;;;;5.78;3.37;;;;;;;14.06;59.80;99100.84;4488550;31;34023;-67
2023/10/29 03:40:39;;;;;;;5.18;3.00;;;;;;;14.04;59.89;99088.53;4478891;32;35002;-67
2023/10/29 03:43:08;;;;;;;5.85;3.37;;;;;;;14.06;59.82;99097.25;4486575;31;33928;-67
2023/10/29 03:45:36;;;;;;;3.92;2.70;;;;;;;14.07;59.81;99097.12;4488651;31;31494;-67
2023/10/29 03:48:03;;;;;;;7.47;3.45;;;;;;;14.07;60.10;99099.81;4493230;31;33604;-67
2023/10/29 03:50:31;;;;;;;5.15;3.35;;;;;;;14.06;60.34;99098.12;4488341;31;33917;-67
2023/10/29 03:52:59;;;;;;;4.20;2.15;;;;;;;14.09;60.44;99088.88;4483637;31;34285;-67
2023/10/29 03:55:26;;;;;;;3.80;2.62;;;;;;;14.11;60.72;99092.28;4484222;31;33251;-67
2023/10/29 03:57:54;;;;;;;3.70;2.22;;;;;;;14.15;60.67;99090.97;4498220;31;34603;-67
2023/10/29 04:00:22;;;;;;;10.38;5.28;;;;;;;14.15;60.60;99078.34;4485799;31;33761;-67
2023/10/29 04:02:50;;;;;;;6.85;4.82;;;;;;;14.11;60.86;99085.06;4491102;31;34591;-67
2023/10/29 04:05:18;;;;;;;20.23;14.30;;;;;;;14.09;60.89;99075.44;4492847;31;33443;-66
2023/10/29 04:07:45;;;;;;;5.93;5.05;;;;;;;14.03;60.98;99094.87;4492567;31;34337;-65
2023/10/29 04:10:14;;;;;;;10.88;4.03;;;;;;;14.10;61.02;99083.38;4474406;31;34957;-66
2023/10/29 04:12:41;;;;;;;16.77;6.50;;;;;;;14.13;61.13;99079.53;4499029;31;34643;-66
2023/10/29 04:15:09;;;;;;;10.43;4.28;;;;;;;14.15;61.36;99078.34;4493994;31;33526;-66
2023/10/29 04:17:37;;;;;;;8.73;5.22;;;;;;;14.13;61.72;99082.22;4487929;31;33470;-65
2023/10/29 04:20:05;;;;;;;12.52;6.65;;;;;;;14.15;61.62;99080.22;4493918;31;33957;-65
2023/10/29 04:22:33;;;;;;;10.18;4.43;;;;;;;14.14;61.56;99090.12;4493936;31;34810;-65
2023/10/29 04:25:01;;;;;;;16.67;6.03;;;;;;;14.18;61.25;99077.22;4486853;31;33057;-66
2023/10/29 04:27:29;;;;;;;9.75;4.32;;;;;;;14.18;61.53;99079.91;4492253;31;34057;-66
2023/10/29 04:29:57;;;;;;;10.05;6.00;;;;;;;14.21;61.79;99080.44;4485349;31;35028;-66
2023/10/29 04:32:25;;;;;;;8.63;3.47;;;;;;;14.24;62.17;99081.13;4475701;31;33264;-65
2023/10/29 04:34:52;;;;;;;12.18;5.22;;;;;;;14.29;62.16;99078.84;4486092;31;34346;-66
2023/10/29 04:37:20;;;;;;;8.50;5.62;;;;;;;14.29;62.30;99085.06;4492989;31;34645;-68
2023/10/29 04:39:49;;;;;;;8.88;5.28;;;;;;;14.28;62.18;99085.19;4474199;32;35587;-70
2023/10/29 04:42:17;;;;;;;6.60;3.65;;;;;;;14.33;61.98;99080.22;4490525;31;33864;-73
2023/10/29 04:44:45;;;;;;;5.47;3.92;;;;;;;14.33;61.98;99083.75;4474841;31;33177;-71
2023/10/29 04:47:13;;;;;;;5.28;3.62;;;;;;;14.31;61.61;99084.91;4478129;31;33656;-68
2023/10/29 04:49:40;;;;;;;4.70;3.08;;;;;;;14.40;61.17;99092.06;4487858;31;33738;-67
2023/10/29 04:52:08;;;;;;;7.55;4.20;;;;;;;14.40;60.67;99089.34;4484068;31;34549;-64
2023/10/29 04:54:36;;;;;;;6.68;4.07;;;;;;;14.36;60.68;99086.13;4484873;32;33629;-64
2023/10/29 04:57:04;;;;;;;7.45;3.00;;;;;;;14.37;60.67;99086.97;4496320;31;34773;-64
2023/10/29 04:59:32;;;;;;;8.05;3.92;;;;;;;14.33;60.23;99090.97;4490176;31;35442;-64
2023/10/29 05:01:59;;;;;;;7.22;3.65;;;;;;;14.28;60.22;99091.44;4491078;31;33707;-68
2023/10/29 05:04:27;;;;;;;5.22;2.75;;;;;;;14.21;60.26;99085.81;4494800;31;34144;-69
2023/10/29 05:06:54;;;;;;;4.45;3.20;;;;;;;14.22;60.74;99081.28;4491629;31;33623;-69
2023/10/29 05:09:22;;;;;;;4.47;2.90;;;;;;;14.27;60.78;99078.13;4498427;31;33908;-69
2023/10/29 05:11:50;;;;;;;4.10;2.30;;;;;;;14.29;60.87;99086.91;4497163;31;33154;-65
2023/10/29 05:14:17;;;;;;;6.12;3.25;;;;;;;14.29;60.61;99090.44;4487056;31;33688;-66
2023/10/29 05:16:45;;;;;;;6.20;3.80;;;;;;;14.29;60.31;99092.31;4490873;31;33905;-65
2023/10/29 05:19:13;;;;;;;4.50;2.65;;;;;;;14.26;60.21;99088.06;4484887;32;34981;-65
2023/10/29 05:21:41;;;;;;;5.00;2.25;;;;;;;14.20;60.35;99081.44;4499350;31;33583;-65
2023/10/29 05:24:09;;;;;;;4.28;2.45;;;;;;;14.07;60.78;99094.44;4496762;31;33300;-66
2023/10/29 05:26:37;;;;;;;6.47;3.28;;;;;;;14.02;60.99;99096.72;4498540;31;33978;-67
2023/10/29 05:29:04;;;;;;;5.53;2.75;;;;;;;14.10;60.72;99096.00;4499659;31;34328;-68
2023/10/29 05:31:32;;;;;;;5.97;3.33;;;;;;;14.10;60.78;99096.81;4487468;31;33610;-64
2023/10/29 05:34:01;;;;;;;5.87;3.10;;;;;;;14.09;60.73;99092.47;4486481;31;32935;-66
2023/10/29 05:36:28;;;;;;;5.95;3.20;;;;;;;14.10;60.88;99099.53;4479766;31;34699;-65
2023/10/29 05:38:56;;;;;;;7.07;3.58;;;;;;;14.11;60.72;99109.28;4478681;31;34060;-65
2023/10/29 05:41:24;;;;;;;4.60;3.00;;;;;;;14.10;60.43;99107.59;4497719;31;34365;-65
2023/10/29 05:43:51;;;;;;;7.70;3.42;;;;;;;14.12;60.13;99108.25;4481144;31;33229;-65
2023/10/29 05:46:22;;;;;;;4.93;3.28;;;;;;;14.12;60.57;99107.41;4474579;31;33979;-65
2023/10/29 05:48:50;;;;;;;7.35;4.18;;;;;;;14.15;60.82;99115.19;4480193;32;33758;-65
2023/10/29 05:51:19;;;;;;;7.75;4.90;;;;;;;13.99;61.21;99113.19;4486567;31;33722;-64
2023/10/29 05:53:47;;;;;;;8.85;4.47;;;;;;;14.12;61.16;99113.66;4481485;32;33192;-66
2023/10/29 05:56:15;;;;;;;6.75;3.50;;;;;;;14.14;61.28;99125.13;4489595;31;34550;-65
2023/10/29 05:58:43;;;;;;;4.68;2.45;;;;;;;14.14;61.26;99121.59;4489827;31;33917;-66
2023/10/29 06:01:11;;;;;;;5.62;3.37;;;;;;;14.08;61.97;99128.41;4483564;31;34615;-65
2023/10/29 06:03:39;;;;;;;6.30;3.83;;;;;;;14.20;61.52;99124.50;4480949;31;32920;-66
2023/10/29 06:06:06;;;;;;;6.90;4.65;;;;;;;14.18;61.57;99125.66;4488927;31;33815;-65
2023/10/29 06:08:34;;;;;;;13.85;6.05;;;;;;;14.16;61.80;99125.81;4474636;31;33788;-66
2023/10/29 06:11:03;;;;;;;8.60;4.62;;;;;;;14.25;61.64;99129.41;4480090;32;33963;-66
2023/10/29 06:13:31;;;;;;;12.32;5.68;;;;;;;14.21;61.97;99123.50;4485878;31;35335;-65
2023/10/29 06:15:58;;;;;;;10.30;5.05;;;;;;;14.16;62.34;99138.44;4490408;31;34066;-65
2023/10/29 06:18:27;;;;;;;9.57;4.78;;;;;;;14.27;61.48;99140.06;4482410;31;34992;-65
2023/10/29 06:20:55;;;;;;;7.28;4.85;;;;;;;14.29;61.42;99144.28;4474718;31;34541;-65
2023/10/29 06:23:22;;;;;;;6.22;4.15;;;;;;;14.34;61.65;99147.34;4488577;31;34264;-66
2023/10/29 06:25:50;;;;;;;6.47;4.18;;;;;;;14.39;61.74;99150.44;4497443;31;33589;-65
2023/10/29 06:28:17;;;;;;;6.97;4.60;;;;;;;14.44;61.93;99152.66;4488334;31;33948;-65
2023/10/29 06:30:45;;;;;;;7.47;3.97;;;;;;;14.34;62.40;99143.81;4491374;31;33829;-65
2023/10/29 06:33:13;;;;;;;13.70;4.15;;;;;;;14.44;62.08;99153.53;4483648;31;33059;-65
2023/10/29 06:35:41;;;;;;;5.78;3.45;;;;;;;14.18;62.90;99147.19;4475339;31;34381;-65
2023/10/29 06:38:08;;;;;;;12.80;3.72;;;;;;;14.34;62.38;99150.03;4474601;31;32214;-66
2023/10/29 06:40:36;;;;;;;5.37;2.92;;;;;;;14.24;62.53;99149.28;4470322;31;31723;-66
2023/10/29 06:43:04;;;;;;;7.03;2.78;;;;;;;14.11;62.99;99156.88;4471870;31;34024;-65
2023/10/29 06:45:31;;;;;;;4.90;3.65;;;;;;;13.68;64.89;99159.25;4470931;31;34676;-65
2023/10/29 06:47:59;;;;;;;7.80;4.95;;;;;;;13.69;64.91;99160.91;4471392;31;33941;-65
2023/10/29 06:50:26;;;;;;;8.63;5.07;;;;;;;13.67;64.77;99168.28;4470286;31;33935;-66
2023/10/29 06:52:54;;;;;;;6.03;3.58;;;;;;;13.80;64.72;99180.53;4469890;31;33311;-67
2023/10/29 06:55:23;;;;;;;6.90;3.83;;;;;;;13.92;64.42;99169.44;4469407;31;34047;-66
2023/10/29 06:57:50;;;;;;;3.37;2.20;;;;;;;14.01;64.48;99173.06;4469641;31;34165;-65
2023/10/29 07:00:18;;;;;;;3.67;2.28;;;;;;;13.95;64.96;99177.22;4486278;31;35278;-66
2023/10/29 07:02:46;;;;;;;9.13;5.12;;;;;;;13.92;65.40;99176.66;4486301;31;34130;-66
2023/10/29 07:05:14;;;;;;;6.32;3.65;;;;;;;13.67;66.09;99179.03;4476994;31;33347;-66
2023/10/29 07:07:42;;;;;;;5.57;3.08;;;;;;;13.81;66.60;99184.94;4467930;32;32778;-66
2023/10/29 07:10:10;;;;;;;6.10;2.28;;;;;;;13.83;66.28;99174.88;4479320;31;33240;-66
2023/10/29 07:12:37;;;;;;;6.53;3.40;;;;;;;13.72;66.89;99176.75;4480315;31;33337;-66
2023/10/29 07:15:09;;;;;;;6.45;4.05;;;;;;;13.56;66.80;99179.25;4475332;31;34558;-66
2023/10/29 07:17:37;;;;;;;4.60;3.33;;;;;;;13.54;67.70;99173.16;4473820;31;34501;-66
2023/10/29 07:20:05;;;;;;;4.95;2.70;;;;;;;13.57;67.25;99175.53;4478852;31;33992;-66
2023/10/29 07:22:33;;;;;;;7.00;3.50;;;;;;;13.30;67.98;99172.84;4487141;31;33310;-67
2023/10/29 07:25:01;;;;;;;4.97;3.05;;;;;;;13.53;67.56;99182.22;4474233;31;33769;-65
2023/10/29 07:27:28;;;;;;;8.30;4.53;;;;;;;13.83;67.01;99178.41;4479722;31;33944;-66
2023/10/29 07:29:56;;;;;;;7.22;4.90;;;;;;;13.85;67.58;99180.94;4478737;31;33798;-66
2023/10/29 07:32:24;;;;;;;7.70;2.95;;;;;;;13.97;67.34;99177.06;4484240;31;32980;-71
2023/10/29 07:34:51;;;;;;;6.28;3.80;;;;;;;14.29;66.21;99168.50;4478861;31;34961;-67
2023/10/29 07:37:19;;;;;;;4.20;2.87;;;;;;;14.15;66.53;99160.94;4465793;32;34023;-66
2023/10/29 07:39:47;;;;;;;6.65;4.60;;;;;;;13.90;66.70;99166.06;4473578;31;34974;-66
2023/10/29 07:42:14;;;;;;;13.85;5.28;;;;;;;14.06;66.88;99160.03;4483088;31;33252;-66
2023/10/29 07:44:42;;;;;;;8.48;4.55;;;;;;;13.94;67.46;99164.75;4471820;31;33616;-67
2023/10/29 07:47:11;;;;;;;5.10;3.65;;;;;;;14.32;66.15;99167.38;4471430;31;32182;-66
2023/10/29 07:49:38;;;;;;;5.82;3.50;;;;;;;14.10;67.11;99177.56;4469163;32;33172;-65
2023/10/29 07:52:06;;;;;;;8.80;3.37;;;;;;;14.34;66.79;99168.03;4469129;31;32759;-66
2023/10/29 07:54:34;;;;;;;8.52;5.20;;;;;;;14.35;67.08;99169.72;4469777;31;35246;-66
2023/10/29 07:57:02;;;;;;;13.82;6.30;;;;;;;14.26;67.10;99160.75;4470803;32;33584;-66
2023/10/29 07:59:31;;;;;;;10.02;6.05;;;;;;;14.57;66.55;99160.38;4469966;31;33761;-66
2023/10/29 08:01:59;;;;;;;8.20;4.25;;;;;;;14.59;66.82;99163.78;4469966;32;31588;-66
2023/10/29 08:04:28;;;;;;;13.07;5.53;;;;;;;14.47;67.65;99164.97;4468695;32;33648;-66
2023/10/29 08:06:55;;;;;;;11.93;6.50;;;;;;;14.63;66.81;99152.53;4469827;32;33902;-67
2023/10/29 08:09:23;;;;;;;9.85;6.85;;;;;;;14.54;67.56;99155.31;4471458;31;33598;-67
2023/10/29 08:11:51;;;;;;;20.05;9.98;;;;;;;14.78;66.41;99154.69;4471110;32;34927;-66
2023/10/29 08:14:18;;;;;;;12.20;6.15;;;;;;;14.73;67.23;99157.81;4471900;32;32218;-67
2023/10/29 08:16:46;;;;;;;15.40;7.30;;;;;;;14.88;66.57;99158.97;4472108;31;35277;-66
2023/10/29 08:19:15;;;;;;;12.32;5.57;;;;;;;14.50;68.13;99168.19;4473545;32;32435;-66
2023/10/29 08:21:42;;;;;;;11.85;6.70;;;;;;;14.27;69.73;99180.44;4471494;32;34513;-66
2023/10/29 08:24:10;;;;;;;10.07;5.90;;;;;;;14.33;70.23;99171.75;4469117;31;32790;-66
2023/10/29 08:26:38;;;;;;;10.80;6.35;;;;;;;14.20;72.12;99178.34;4467432;31;33899;-65
2023/10/29 08:29:06;;;;;;;11.07;6.82;;;;;;;15.01;69.43;99174.72;4470202;31;33376;-64
2023/10/29 08:31:34;;;;;;;7.75;4.78;;;;;;;15.30;68.64;99173.59;4468542;31;35151;-65
2023/10/29 08:34:02;;;;;;;10.13;5.57;;;;;;;15.64;66.89;99170.94;4469781;31;34522;-66
2023/10/29 08:36:29;;;;;;;9.63;5.55;;;;;;;15.91;66.19;99160.94;4473654;31;34925;-65
2023/10/29 08:38:57;;;;;;;15.93;9.48;;;;;;;15.67;66.90;99167.94;4472672;31;33339;-65
2023/10/29 08:41:25;;;;;;;13.80;7.72;;;;;;;15.76;66.41;99166.09;4469561;31;34744;-65
2023/10/29 08:43:52;;;;;;;11.12;6.22;;;;;;;15.81;67.03;99164.63;4471922;31;34966;-66
2023/10/29 08:46:20;;;;;;;10.43;6.45;;;;;;;15.72;67.97;99167.44;4470219;31;33777;-67
2023/10/29 08:48:51;;;;;;;12.70;7.32;;;;;;;15.71;67.78;99168.47;4471747;31;33435;-66
2023/10/29 08:51:18;;;;;;;25.62;8.20;;;;;;;15.88;67.37;99159.41;4468998;31;34213;-67
2023/10/29 08:53:46;;;;;;;9.60;5.93;;;;;;;15.09;69.49;99174.81;4474151;31;34126;-66
2023/10/29 08:56:14;;;;;;;11.85;6.10;;;;;;;16.04;67.28;99172.13;4470384;31;33858;-67
2023/10/29 08:58:41;;;;;;;11.68;5.75;;;;;;;16.05;67.22;99169.28;4471267;31;33285;-67
2023/10/29 09:01:12;;;;;;;8.65;5.10;;;;;;;16.51;66.02;99171.56;4465115;31;33253;-65
2023/10/29 09:03:40;;;;;;;8.60;5.50;;;;;;;16.65;64.30;99172.75;4469587;31;34589;-66
2023/10/29 09:06:08;;;;;;;12.50;5.60;;;;;;;16.99;63.88;99173.47;4468254;31;33933;-65
2023/10/29 09:08:37;;;;;;;9.18;3.33;;;;;;;17.13;63.52;99174.66;4467962;32;33517;-64
2023/10/29 09:11:05;;;;;;;9.57;2.90;;;;;;;17.23;60.94;99175.31;4470903;31;34182;-63
2023/10/29 09:13:32;;;;;;;5.18;2.78;;;;;;;17.46;61.23;99174.59;4465310;31;34024;-64
2023/10/29 09:16:00;;;;;;;5.80;2.75;;;;;;;17.62;61.04;99179.13;4472510;31;35152;-65
2023/10/29 09:18:28;;;;;;;4.97;2.42;;;;;;;17.78;59.79;99167.44;4474028;31;33619;-64
2023/10/29 09:20:56;;;;;;;6.28;2.78;;;;;;;17.82;59.02;99164.22;4472555;32;33442;-64
2023/10/29 09:23:24;;;;;;;9.30;3.00;;;;;;;17.84;59.28;99167.56;4469743;31;33696;-64
2023/10/29 09:25:52;;;;;;;4.97;3.05;;;;;;;17.95;59.73;99157.41;4468648;31;35148;-64
2023/10/29 09:28:20;;;;;;;6.18;2.83;;;;;;;18.05;59.17;99158.03;4472014;31;34092;-64
2023/10/29 09:30:48;;;;;;;6.47;2.40;;;;;;;17.35;60.93;99156.03;4468685;31;33207;-65
2023/10/29 09:33:16;;;;;;;6.12;2.85;;;;;;;17.60;60.96;99157.66;4475460;31;34216;-65
2023/10/29 09:35:44;;;;;;;6.07;3.35;;;;;;;17.64;61.07;99161.69;4473786;31;33716;-65
2023/10/29 09:38:11;;;;;;;5.40;3.15;;;;;;;17.48;61.34;99156.34;4474785;31;33489;-64
2023/10/29 09:40:40;;;;;;;3.00;2.00;;;;;;;17.82;60.31;99155.25;4473320;31;33591;-65
2023/10/29 09:43:09;;;;;;;2.92;1.67;;;;;;;17.41;62.02;99149.94;4471991;31;33510;-65
2023/10/29 09:45:38;;;;;;;6.10;2.42;;;;;;;17.48;61.85;99148.22;4469962;31;35158;-66
2023/10/29 09:48:07;;;;;;;2.87;1.52;;;;;;;17.93;61.05;99142.16;4473073;31;34260;-65
2023/10/29 09:50:35;;;;;;;4.43;2.15;;;;;;;18.25;59.91;99148.41;4468432;31;33128;-65
2023/10/29 09:53:04;;;;;;;3.28;2.05;;;;;;;17.86;60.89;99149.28;4472060;31;33601;-65
2023/10/29 09:55:32;;;;;;;6.28;3.35;;;;;;;18.25;59.83;99142.16;4473183;32;34585;-67
2023/10/29 09:57:59;;;;;;;6.07;2.58;;;;;;;17.79;61.24;99151.03;4438811;32;34364;-66
2023/10/29 10:00:27;;;;;;;8.07;2.33;;;;;;;18.30;60.65;99159.56;4438370;32;33535;-67
2023/10/29 10:02:56;;;;;;;3.85;1.90;;;;;;;18.11;60.45;99160.03;4436851;32;34007;-65
2023/10/29 10:05:25;;;;;;;7.07;3.03;;;;;;;18.58;59.38;99148.19;4437920;32;34378;-65
2023/10/29 10:07:55;;;;;;;4.60;1.85;;;;;;;18.53;59.63;99140.63;4438621;32;33255;-66
2023/10/29 10:10:52;;;;;;;6.47;2.03;;;;;;;18.26;60.33;99141.97;4438286;32;31830;-68
2023/10/29 10:13:41;;;;;;;9.27;3.10;;;;;;;18.95;58.90;99143.88;4392130;32;34762;-67
2023/10/29 10:16:13;;;;;;;2.50;1.50;;;;;;;19.09;58.38;99129.50;4393746;32;34916;-66
2023/10/29 10:18:50;;;;;;;3.17;1.70;;;;;;;19.44;57.78;99129.81;4394976;32;34858;-65
2023/10/29 10:21:23;;;;;;;10.60;2.37;;;;;;;19.34;57.96;99131.97;4393640;32;33242;-68
2023/10/29 10:23:52;;;;;;;3.35;1.33;;;;;;;18.87;59.03;99136.62;4406878;32;33321;-66
2023/10/29 10:26:29;;;;;;;3.25;1.20;;;;;;;19.16;56.60;99122.28;4407738;32;32645;-65
2023/10/29 10:28:58;;;;;;;5.40;1.08;;;;;;;19.15;56.06;99125.22;4405269;32;34715;-67
2023/10/29 10:31:31;;;;;;;1.27;0.60;;;;;;;19.31;55.61;99122.31;4402705;32;36091;-67
2023/10/29 10:34:08;;;;;;;1.77;0.50;;;;;;;19.21;53.90;99116.34;4408587;32;33532;-67
2023/10/29 10:36:36;;;;;;;3.67;1.20;;;;;;;19.29;53.83;99108.97;4412845;32;34799;-67
2023/10/29 10:39:04;;;;;;;3.90;1.05;;;;;;;19.88;52.97;99102.66;4418861;32;33497;-66
2023/10/29 10:41:42;;;;;;;1.65;1.10;;;;;;;19.39;53.43;99115.94;4412653;32;33946;-66
2023/10/29 10:44:11;;;;;;;13.45;3.53;;;;;;;19.20;54.25;99109.22;4398830;32;34549;-65
2023/10/29 10:46:51;;;;;;;5.40;2.70;;;;;;;19.56;54.25;99103.91;4400027;32;33900;-65
2023/10/29 10:49:19;;;;;;;3.75;1.17;;;;;;;19.67;53.94;99111.59;4414312;31;33068;-66
2023/10/29 10:51:49;;;;;;;1.80;0.93;;;;;;;19.55;53.59;99104.94;4468827;31;32995;-66
2023/10/29 10:54:19;;;;;;;2.17;1.15;;;;;;;19.56;53.25;99103.91;4468380;31;32328;-66
2023/10/29 10:56:49;;;;;;;3.95;1.80;;;;;;;19.67;53.30;99105.31;4470769;31;34162;-66
2023/10/29 10:59:17;;;;;;;10.10;3.53;;;;;;;19.29;53.50;99099.94;4470463;32;33501;-67
2023/10/29 11:01:46;;;;;;;3.75;1.48;;;;;;;19.25;54.09;99099.47;4471026;31;33436;-65
2023/10/29 11:04:15;;;;;;;2.45;1.02;;;;;;;19.28;54.29;99109.13;4468365;32;33604;-65
2023/10/29 11:06:43;;;;;;;4.47;0.98;;;;;;;19.60;54.05;99109.78;4471481;31;35006;-65
2023/10/29 11:09:12;;;;;;;5.62;1.05;;;;;;;19.21;54.52;99091.91;4469492;31;33308;-65
2023/10/29 11:11:49;;;;;;;3.30;1.02;;;;;;;19.43;54.14;99098.28;4471027;32;33253;-65
2023/10/29 11:14:18;;;;;;;2.37;1.05;;;;;;;19.37;53.86;99102.59;4471402;32;34643;-67
2023/10/29 11:16:47;;;;;;;1.15;0.40;;;;;;;19.24;53.54;99095.09;4469049;31;34017;-66
2023/10/29 11:19:32;;;;;;;0.77;0.62;;;;;;;19.24;54.02;99089.66;4469612;32;34601;-66
2023/10/29 11:22:13;;;;;;;8.45;1.35;;;;;;;19.00;54.11;99093.47;4472304;31;33176;-66
2023/10/29 11:24:41;;;;;;;1.85;0.62;;;;;;;19.16;53.99;99083.47;4467457;31;33255;-67
2023/10/29 11:27:46;;;;;;;5.70;1.02;;;;;;;19.51;52.98;99093.59;4471435;32;33743;-67
2023/10/29 11:30:16;;;;;;;1.00;0.55;;;;;;;19.43;52.61;99096.41;4471108;32;33620;-66
2023/10/29 11:32:45;;;;;;;3.42;1.42;;;;;;;19.49;52.36;99098.38;4468533;31;33036;-65
2023/10/29 11:35:16;;;;;;;3.87;1.73;;;;;;;19.52;52.71;99091.75;4467046;31;34125;-65
2023/10/29 11:37:44;;;;;;;8.50;1.50;;;;;;;19.69;52.64;99090.53;4470303;32;33828;-65